Time;durP1;ratioP1;P1;durP2;ratioP2;P2;SDS_P1;SDS_P2;PMS_P1;PMS_P2;Temp;Humidity;BMP_temperature;BMP_pressure;BME280_temperature;BME280_humidity;BME280_pressure;Samples;Min_cycle;Max_cycle;Signal;HPM_P1;HPM_P2
2022/02/25 00:00:09;;;;;;;4.00;3.70;;;3.50;99.90;;;4.29;99.46;98143.78;5245642;28;20192;-62
2022/02/25 00:02:42;;;;;;;3.60;3.40;;;3.50;99.90;;;4.28;99.91;98153.03;5249945;28;20512;-62
2022/02/25 00:05:17;;;;;;;3.67;3.47;;;3.50;99.90;;;4.35;100.00;98144.34;5252898;28;20212;-62
2022/02/25 00:07:50;;;;;;;3.67;3.47;;;3.50;99.90;;;4.37;99.73;98139.38;5244519;28;20201;-62
2022/02/25 00:10:23;;;;;;;3.23;3.03;;;3.50;99.90;;;4.40;100.00;98138.00;5246940;28;20643;-62
2022/02/25 00:12:56;;;;;;;3.50;3.30;;;3.60;99.90;;;4.38;99.79;98139.53;5245056;28;20217;-62
2022/02/25 00:15:29;;;;;;;3.10;2.90;;;3.60;99.90;;;4.42;100.00;98155.84;5237134;28;20671;-62
2022/02/25 00:18:03;;;;;;;3.33;3.13;;;3.60;99.90;;;4.50;99.75;98155.75;5239602;28;20204;-62
2022/02/25 00:20:37;;;;;;;4.40;4.10;;;3.60;99.90;;;4.35;99.77;98151.94;5239984;28;20227;-62
2022/02/25 00:23:10;;;;;;;3.10;2.90;;;3.60;99.90;;;4.33;100.00;98150.91;5234978;28;20592;-62
2022/02/25 00:25:43;;;;;;;3.00;2.90;;;3.60;99.90;;;4.39;100.00;98159.00;5237772;28;20197;-62
2022/02/25 00:28:16;;;;;;;3.40;3.27;;;3.60;99.90;;;4.25;99.57;98151.88;5238427;28;20219;-62
2022/02/25 00:30:49;;;;;;;3.00;2.90;;;3.60;99.90;;;4.25;100.00;98159.47;5230874;28;20198;-62
2022/02/25 00:33:23;;;;;;;2.87;2.77;;;3.60;99.90;;;4.31;100.00;98171.75;5228751;28;20223;-62
2022/02/25 00:35:57;;;;;;;3.20;3.00;;;3.60;99.90;;;4.31;100.00;98172.63;5228998;28;20203;-62
2022/02/25 00:38:30;;;;;;;3.00;2.80;;;3.60;99.90;;;4.29;100.00;98184.25;5228157;28;20196;-63
2022/02/25 00:41:04;;;;;;;3.07;2.87;;;3.60;99.90;;;4.28;100.00;98188.44;5238560;28;20211;-62
2022/02/25 00:43:37;;;;;;;2.90;2.70;;;3.60;99.90;;;4.29;100.00;98190.22;5233043;28;20220;-62
2022/02/25 00:46:10;;;;;;;2.97;2.87;;;3.60;99.90;;;4.27;100.00;98195.91;5234061;28;20189;-63
2022/02/25 00:48:44;;;;;;;3.13;2.83;;;3.60;99.90;;;4.24;100.00;98199.06;5233292;28;20250;-62
2022/02/25 00:51:19;;;;;;;3.10;3.00;;;3.50;99.90;;;4.26;100.00;98205.16;5233678;28;20208;-62
2022/02/25 00:53:52;;;;;;;3.90;2.90;;;3.50;99.90;;;4.32;100.00;98204.78;5233694;28;20216;-63
2022/02/25 00:56:25;;;;;;;3.23;2.93;;;3.40;99.90;;;4.12;100.00;98215.72;5237322;28;20553;-62
2022/02/25 00:59:00;;;;;;;2.97;2.77;;;3.40;99.90;;;4.01;100.00;98222.34;5229490;28;20638;-64
2022/02/25 01:01:33;;;;;;;2.90;2.70;;;3.20;99.90;;;3.86;98.82;98225.16;5239787;28;20232;-63
2022/02/25 01:04:07;;;;;;;3.10;2.90;;;3.20;99.90;;;3.88;100.00;98226.19;5232012;28;20601;-62
2022/02/25 01:06:42;;;;;;;3.33;3.13;;;3.10;99.90;;;3.87;100.00;98227.84;5236637;28;20216;-62
2022/02/25 01:09:15;;;;;;;3.53;2.90;;;3.10;99.90;;;3.78;100.00;98232.09;5241877;28;20207;-62
2022/02/25 01:11:48;;;;;;;4.27;3.40;;;3.00;99.90;;;3.74;100.00;98235.94;5240218;28;20197;-63
2022/02/25 01:14:21;;;;;;;3.60;3.37;;;3.00;99.90;;;3.72;100.00;98231.50;5230397;28;20197;-62
2022/02/25 01:16:54;;;;;;;4.60;3.50;;;3.00;99.90;;;3.63;99.77;98240.81;5234628;28;20207;-62
2022/02/25 01:19:27;;;;;;;3.00;2.70;;;2.90;99.90;;;3.59;100.00;98245.59;5237439;28;20536;-63
2022/02/25 01:22:02;;;;;;;3.43;3.13;;;2.90;99.90;;;3.68;100.00;98252.22;5238294;28;20228;-63
2022/02/25 01:24:35;;;;;;;3.53;3.23;;;2.90;99.90;;;3.68;100.00;98255.63;5230750;28;20303;-63
2022/02/25 01:27:08;;;;;;;4.17;3.80;;;2.90;99.90;;;3.64;100.00;98257.75;5236898;28;20664;-63
2022/02/25 01:29:42;;;;;;;3.60;3.30;;;2.90;99.90;;;3.70;100.00;98256.66;5234321;28;20570;-63
2022/02/25 01:32:15;;;;;;;3.93;3.63;;;2.90;99.90;;;3.67;99.10;98260.56;5237043;28;20261;-63
2022/02/25 01:34:48;;;;;;;4.67;3.50;;;2.90;99.90;;;3.73;98.41;98266.16;5234898;28;20209;-63
2022/02/25 01:37:22;;;;;;;5.13;4.27;;;3.00;99.90;;;3.70;97.94;98269.31;5239856;28;20204;-63
2022/02/25 01:39:56;;;;;;;3.80;3.50;;;3.00;99.90;;;3.70;98.31;98270.94;5237522;28;20675;-63
2022/02/25 01:42:29;;;;;;;5.97;4.13;;;3.00;99.90;;;3.74;98.09;98278.03;5233629;28;20221;-63
2022/02/25 01:45:03;;;;;;;3.87;3.53;;;3.00;99.90;;;3.66;96.48;98284.91;5232582;28;20205;-63
2022/02/25 01:47:36;;;;;;;3.93;3.63;;;3.00;99.90;;;3.63;97.51;98284.66;5227921;28;20210;-63
2022/02/25 01:50:10;;;;;;;4.57;4.07;;;2.90;99.90;;;3.67;98.92;98288.38;5237817;28;20200;-63
2022/02/25 01:52:58;;;;;;;5.30;3.60;;;2.90;99.90;;;3.52;96.80;98292.88;5236837;28;20257;-63
2022/02/25 01:55:32;;;;;;;3.80;3.53;;;2.80;99.90;;;3.44;96.67;98293.88;5233604;28;20219;-63
2022/02/25 01:58:06;;;;;;;5.10;3.47;;;2.70;99.90;;;3.34;95.66;98297.16;5236794;28;20207;-62
2022/02/25 02:00:39;;;;;;;4.27;3.87;;;2.70;99.90;;;3.39;96.80;98298.47;5235711;28;20195;-62
2022/02/25 02:03:13;;;;;;;4.27;3.87;;;2.60;99.90;;;3.36;97.97;98296.56;5239890;28;20229;-63
2022/02/25 02:05:46;;;;;;;4.60;4.20;;;2.60;99.90;;;3.34;97.35;98292.13;5236241;28;20544;-63
2022/02/25 02:08:21;;;;;;;3.43;3.23;;;2.60;99.90;;;3.27;97.90;98299.88;5236787;28;20221;-63
2022/02/25 02:10:54;;;;;;;7.57;3.60;;;2.50;99.90;;;3.29;97.64;98308.47;5237530;28;20217;-62
2022/02/25 02:13:27;;;;;;;4.13;3.83;;;2.50;99.90;;;3.20;98.25;98302.59;5240241;28;20230;-62
2022/02/25 02:15:59;;;;;;;4.00;3.70;;;2.40;99.90;;;3.17;98.15;98313.28;5240122;28;20203;-62
2022/02/25 02:18:33;;;;;;;3.70;3.50;;;2.40;99.90;;;3.11;98.49;98313.59;5234215;28;20245;-62
2022/02/25 02:21:07;;;;;;;5.53;4.13;;;2.40;99.90;;;3.12;98.94;98324.63;5235465;28;20717;-62
2022/02/25 02:23:41;;;;;;;4.47;4.20;;;2.30;99.90;;;3.06;99.23;98326.56;5234936;28;20221;-62
2022/02/25 02:26:14;;;;;;;4.77;3.80;;;2.30;99.90;;;3.06;99.91;98324.94;5228726;28;20202;-63
2022/02/25 02:28:48;;;;;;;4.40;4.00;;;2.30;99.90;;;2.98;98.94;98337.59;5235037;28;20653;-63
2022/02/25 02:31:21;;;;;;;3.77;3.57;;;2.30;99.90;;;2.94;99.80;98344.84;5234772;28;20208;-63
2022/02/25 02:33:54;;;;;;;3.70;3.50;;;2.20;99.90;;;2.88;99.35;98340.88;5234814;28;20227;-62
2022/02/25 02:36:27;;;;;;;4.10;3.70;;;2.10;99.90;;;2.87;99.87;98341.63;5235758;28;20662;-62
2022/02/25 02:39:02;;;;;;;4.53;4.20;;;2.10;99.90;;;2.83;99.78;98349.63;5237111;28;20573;-63
2022/02/25 02:41:35;;;;;;;4.07;3.67;;;2.10;99.90;;;2.81;99.60;98356.19;5232055;28;20204;-62
2022/02/25 02:44:09;;;;;;;4.80;4.30;;;2.00;99.90;;;2.78;100.00;98360.97;5242951;28;20211;-62
2022/02/25 02:46:42;;;;;;;4.77;4.40;;;2.10;99.90;;;2.78;99.63;98361.84;5232734;28;20198;-62
2022/02/25 02:49:15;;;;;;;4.87;4.47;;;2.10;99.90;;;2.84;100.00;98366.59;5236796;28;20197;-62
2022/02/25 02:51:50;;;;;;;4.67;4.27;;;2.10;99.90;;;2.83;99.75;98364.78;5235550;28;20200;-62
2022/02/25 02:54:24;;;;;;;4.63;3.70;;;2.00;99.90;;;2.74;100.00;98368.97;5235521;28;20221;-62
2022/02/25 02:56:57;;;;;;;3.77;3.53;;;2.00;99.90;;;2.72;99.34;98376.41;5234812;28;20208;-62
2022/02/25 02:59:30;;;;;;;4.07;3.70;;;2.00;99.90;;;2.64;99.03;98375.66;5238728;28;20207;-62
2022/02/25 03:02:04;;;;;;;4.40;4.00;;;1.90;99.90;;;2.63;99.38;98381.47;5239151;28;20238;-62
2022/02/25 03:04:37;;;;;;;4.67;3.70;;;1.80;99.90;;;2.61;98.86;98382.94;5239214;28;20223;-62
2022/02/25 03:07:10;;;;;;;3.60;3.30;;;1.80;99.90;;;2.58;98.73;98387.69;5238350;28;20204;-62
2022/02/25 03:09:45;;;;;;;4.43;3.83;;;1.80;99.90;;;2.53;97.84;98393.94;5234771;28;20237;-62
2022/02/25 03:12:18;;;;;;;3.63;3.33;;;1.80;99.90;;;2.44;98.14;98390.53;5232702;28;20234;-63
2022/02/25 03:14:51;;;;;;;5.63;3.50;;;1.70;99.90;;;2.48;98.37;98390.06;5236642;28;20216;-63
2022/02/25 03:17:24;;;;;;;4.67;3.67;;;1.70;99.90;;;2.46;98.21;98387.41;5236686;28;20312;-63
2022/02/25 03:19:57;;;;;;;4.47;3.07;;;1.70;99.90;;;2.35;96.77;98390.53;5232922;28;20208;-63
2022/02/25 03:22:30;;;;;;;5.93;3.53;;;1.60;99.90;;;2.36;98.36;98391.41;5236101;28;20231;-62
2022/02/25 03:25:07;;;;;;;4.43;3.47;;;1.60;99.90;;;2.33;97.20;98403.72;5237468;28;20229;-62
2022/02/25 03:27:40;;;;;;;4.73;3.67;;;1.60;99.90;;;2.31;98.43;98403.56;5236037;28;20664;-62
2022/02/25 03:30:14;;;;;;;3.90;3.50;;;1.60;99.90;;;2.28;98.59;98410.84;5234690;28;20215;-62
2022/02/25 03:32:47;;;;;;;4.77;3.57;;;1.50;99.90;;;2.21;98.18;98414.41;5236652;28;20217;-62
2022/02/25 03:35:21;;;;;;;5.47;3.60;;;1.50;99.90;;;2.21;98.55;98424.50;5238339;28;20293;-62
2022/02/25 03:37:55;;;;;;;4.13;3.73;;;1.50;99.90;;;2.24;98.75;98424.78;5237888;28;20216;-62
2022/02/25 03:40:29;;;;;;;6.13;3.47;;;1.50;99.90;;;2.15;96.79;98426.41;5233657;28;20201;-62
2022/02/25 03:43:03;;;;;;;4.10;3.70;;;1.40;99.90;;;2.12;97.10;98428.63;5239520;28;20216;-63
2022/02/25 03:45:36;;;;;;;4.37;3.60;;;1.40;99.90;;;2.23;98.42;98434.72;5235879;28;20231;-62
2022/02/25 03:48:09;;;;;;;4.03;3.60;;;1.50;99.90;;;2.28;98.18;98435.16;5233954;28;20223;-63
2022/02/25 03:50:42;;;;;;;3.73;3.40;;;1.50;99.90;;;2.32;99.05;98433.09;5237185;28;20209;-62
2022/02/25 03:53:15;;;;;;;4.23;3.50;;;1.60;99.90;;;2.37;98.91;98439.47;5243672;28;20245;-63
2022/02/25 03:55:50;;;;;;;3.80;3.53;;;1.70;99.90;;;2.43;98.58;98436.66;5241923;28;20199;-62
2022/02/25 03:58:23;;;;;;;4.57;3.93;;;1.70;99.90;;;2.47;98.42;98443.78;5239686;28;20694;-63
2022/02/25 04:00:56;;;;;;;4.30;4.00;;;1.70;99.90;;;2.40;97.62;98441.41;5242510;28;20192;-62
2022/02/25 04:03:29;;;;;;;4.67;4.27;;;1.70;99.90;;;2.39;98.70;98454.78;5238098;28;20635;-63
2022/02/25 04:06:02;;;;;;;4.03;3.63;;;1.70;99.90;;;2.43;98.16;98451.78;5241752;28;20221;-62
2022/02/25 04:08:35;;;;;;;4.13;3.83;;;1.70;99.90;;;2.42;96.38;98450.03;5240512;28;20300;-63
2022/02/25 04:11:10;;;;;;;5.20;4.10;;;1.60;99.90;;;2.36;97.13;98459.50;5240774;28;20206;-63
2022/02/25 04:13:43;;;;;;;4.57;4.17;;;1.60;99.90;;;2.40;98.18;98459.06;5239607;28;20223;-62
2022/02/25 04:16:16;;;;;;;4.07;3.67;;;1.60;99.90;;;2.31;97.33;98460.69;5239800;28;20204;-63
2022/02/25 04:18:49;;;;;;;5.60;3.70;;;1.50;99.90;;;2.22;96.59;98471.66;5236161;28;20666;-62
2022/02/25 04:21:22;;;;;;;6.63;3.80;;;1.40;99.90;;;2.29;97.22;98462.16;5238976;28;20204;-62
2022/02/25 04:23:55;;;;;;;4.00;3.50;;;1.60;99.90;;;2.26;97.59;98462.75;5235264;28;20225;-62
2022/02/25 04:26:29;;;;;;;3.93;3.60;;;1.50;99.90;;;2.31;97.39;98466.63;5241368;28;20212;-62
2022/02/25 04:29:04;;;;;;;3.83;3.53;;;1.60;99.90;;;2.36;97.98;98474.66;5238247;28;20201;-62
2022/02/25 04:31:37;;;;;;;3.53;3.33;;;1.60;99.90;;;2.31;97.48;98480.88;5236735;28;20616;-62
2022/02/25 04:34:10;;;;;;;3.70;3.40;;;1.50;99.90;;;2.30;97.34;98481.63;5240547;28;20229;-62
2022/02/25 04:36:45;;;;;;;3.93;3.63;;;1.50;99.90;;;2.30;97.04;98489.19;5235339;28;20204;-62
2022/02/25 04:39:18;;;;;;;3.90;3.40;;;1.50;99.90;;;2.25;97.31;98487.06;5238166;28;20197;-62
2022/02/25 04:41:52;;;;;;;5.27;3.70;;;1.50;99.90;;;2.34;98.05;98491.25;5239346;28;20204;-62
2022/02/25 04:44:29;;;;;;;4.27;3.73;;;1.60;99.90;;;2.38;98.26;98503.44;5239061;28;20217;-63
2022/02/25 04:47:03;;;;;;;4.23;3.83;;;1.70;99.90;;;2.51;98.70;98497.97;5238781;28;21486;-62
2022/02/25 04:49:37;;;;;;;3.90;3.57;;;1.70;99.90;;;2.54;98.21;98496.63;5236839;28;20221;-62
2022/02/25 04:52:12;;;;;;;4.90;4.00;;;1.80;99.90;;;2.53;98.04;98499.91;5236437;28;20227;-62
2022/02/25 04:54:45;;;;;;;5.60;3.97;;;1.80;99.90;;;2.56;98.27;98490.09;5238037;28;20202;-62
2022/02/25 04:57:20;;;;;;;4.40;3.93;;;1.80;99.90;;;2.56;97.91;98489.22;5239282;28;20203;-62
2022/02/25 04:59:53;;;;;;;5.23;4.10;;;1.80;99.90;;;2.58;97.76;98493.66;5242418;28;20203;-62
2022/02/25 05:02:27;;;;;;;4.20;3.80;;;1.80;99.90;;;2.61;98.15;98498.13;5239644;28;20227;-63
2022/02/25 05:05:00;;;;;;;3.97;3.63;;;1.90;99.90;;;2.63;98.45;98497.53;5240539;28;20267;-63
2022/02/25 05:07:34;;;;;;;4.80;3.70;;;1.80;99.90;;;2.61;97.70;98495.59;5239404;28;20205;-63
2022/02/25 05:10:09;;;;;;;3.93;3.30;;;1.80;99.90;;;2.62;96.97;98510.00;5241149;28;20211;-63
2022/02/25 05:12:43;;;;;;;3.80;3.60;;;1.90;99.90;;;2.70;97.38;98504.06;5227509;28;20230;-63
2022/02/25 05:20:58;;;;;;;5.60;3.77;;;2.00;99.90;;;2.77;97.74;98516.53;5230351;28;20238;-63
2022/02/25 05:23:31;;;;;;;6.03;3.70;;;2.00;99.90;;;2.81;97.48;98512.69;5232705;28;20220;-63
2022/02/25 05:26:04;;;;;;;5.63;3.50;;;2.00;99.90;;;2.83;96.32;98513.72;5241598;28;20211;-63
2022/02/25 05:28:39;;;;;;;6.13;3.97;;;2.10;99.90;;;2.84;97.05;98528.13;5239114;28;20295;-63
2022/02/25 05:31:14;;;;;;;5.47;3.80;;;2.10;99.90;;;2.80;95.49;98531.97;5243789;28;20572;-63
2022/02/25 05:33:48;;;;;;;3.53;3.23;;;2.10;99.90;;;2.78;94.78;98525.03;5234978;28;20219;-63
2022/02/25 05:36:22;;;;;;;3.87;3.57;;;2.00;99.90;;;2.82;95.10;98533.03;5240774;28;20197;-63
2022/02/25 05:38:55;;;;;;;3.93;3.33;;;2.10;99.90;;;2.79;93.47;98536.88;5239852;28;20662;-63
2022/02/25 05:41:28;;;;;;;4.67;3.63;;;2.00;99.90;;;2.84;95.07;98531.53;5238683;28;20597;-63
2022/02/25 05:44:03;;;;;;;4.57;3.13;;;2.10;99.90;;;2.96;93.91;98543.59;5232746;28;20229;-63
2022/02/25 05:46:36;;;;;;;4.43;3.33;;;2.10;99.90;;;3.01;90.79;98537.34;5233834;28;20254;-63
2022/02/25 05:49:10;;;;;;;4.20;3.70;;;2.10;99.90;;;3.02;90.80;98540.00;5237956;28;20204;-63
2022/02/25 05:51:43;;;;;;;3.77;3.47;;;2.10;99.90;;;3.00;88.76;98546.53;5236219;28;20201;-62
2022/02/25 05:54:16;;;;;;;3.57;3.27;;;2.10;99.90;;;2.98;89.55;98550.56;5238077;28;20193;-63
2022/02/25 05:56:49;;;;;;;5.03;3.27;;;2.10;99.90;;;3.12;89.57;98560.38;5235895;28;20800;-60
2022/02/25 05:59:23;;;;;;;4.30;3.30;;;2.30;99.90;;;3.45;85.76;98563.47;5233780;28;20212;-61
2022/02/25 06:01:57;;;;;;;3.20;2.90;;;2.40;99.90;;;3.39;85.17;98562.13;5242619;28;20298;-63
2022/02/25 06:04:30;;;;;;;3.70;3.40;;;2.40;99.90;;;3.45;84.47;98571.03;5239805;28;20673;-63
2022/02/25 06:07:04;;;;;;;3.33;3.13;;;2.40;99.90;;;3.29;85.34;98576.25;5236899;28;20309;-63
2022/02/25 06:09:37;;;;;;;3.73;3.40;;;2.40;99.90;;;3.25;86.59;98575.06;5241391;28;20205;-63
2022/02/25 06:12:10;;;;;;;3.90;3.07;;;2.30;99.90;;;3.22;86.63;98574.75;5231832;28;20220;-63
2022/02/25 06:14:45;;;;;;;5.07;3.20;;;2.30;99.90;;;3.27;84.98;98582.81;5234876;28;20318;-63
2022/02/25 06:17:18;;;;;;;3.67;3.30;;;2.30;99.90;;;3.20;86.75;98578.75;5231451;28;20211;-63
2022/02/25 06:19:51;;;;;;;5.23;3.50;;;2.30;99.90;;;3.09;87.25;98577.75;5232623;28;20200;-63
2022/02/25 06:22:25;;;;;;;5.90;3.40;;;2.20;99.90;;;3.20;87.28;98585.47;5232463;28;20285;-62
2022/02/25 06:24:58;;;;;;;5.60;3.37;;;2.20;99.90;;;3.28;85.20;98580.41;5229492;28;20937;-62
2022/02/25 06:27:31;;;;;;;4.43;3.17;;;2.30;99.90;;;3.29;84.61;98581.28;5233047;28;20198;-62
2022/02/25 06:30:10;;;;;;;4.87;3.13;;;2.30;99.90;;;3.24;85.77;98582.50;5230333;28;20678;-62
2022/02/25 06:32:44;;;;;;;5.43;3.70;;;2.30;99.90;;;3.21;87.47;98579.69;5230116;28;20675;-62
2022/02/25 06:35:17;;;;;;;6.57;3.60;;;2.30;99.90;;;3.33;85.24;98590.97;5230125;28;20211;-62
2022/02/25 06:37:50;;;;;;;3.23;3.03;;;2.30;99.90;;;3.42;83.07;98589.31;5231466;28;20196;-62
2022/02/25 06:43:20;;;;;;;8.37;4.00;;;2.30;99.90;;;3.37;82.29;98593.03;5226701;28;20326;-63
2022/02/25 06:45:55;;;;;;;4.43;3.50;;;2.30;99.90;;;3.25;82.46;98594.38;5230559;28;20225;-62
2022/02/25 06:48:28;;;;;;;8.33;4.13;;;2.20;99.90;;;3.27;83.25;98592.91;5224986;28;21491;-63
2022/02/25 06:51:06;;;;;;;5.53;3.63;;;2.30;99.90;;;3.19;84.36;98598.84;5224352;28;20284;-63
2022/02/25 06:53:39;;;;;;;5.80;4.13;;;2.20;99.90;;;3.13;83.94;98600.03;5229054;28;20818;-62
2022/02/25 06:56:12;;;;;;;5.53;3.93;;;2.10;99.90;;;3.07;84.67;98599.44;5225474;28;20201;-63
2022/02/25 06:58:45;;;;;;;6.07;3.77;;;2.10;99.90;;;3.20;83.54;98604.03;5228775;28;20200;-63
2022/02/25 07:01:20;;;;;;;7.10;4.00;;;2.10;99.90;;;3.20;83.20;98603.13;5232676;28;20219;-61
2022/02/25 07:03:53;;;;;;;5.60;3.90;;;2.10;99.90;;;3.09;84.50;98613.09;5224409;28;20225;-63
2022/02/25 07:06:27;;;;;;;4.67;4.10;;;2.10;99.90;;;3.00;85.15;98624.81;5234760;28;20308;-63
2022/02/25 07:09:01;;;;;;;6.17;3.83;;;2.10;99.90;;;3.08;85.36;98628.97;5234066;28;20606;-63
2022/02/25 07:11:34;;;;;;;4.33;3.30;;;2.30;99.90;;;3.55;84.43;98625.13;5225236;28;20199;-63
2022/02/25 07:14:09;;;;;;;5.77;3.60;;;2.60;99.90;;;3.87;83.08;98623.91;5230682;28;20204;-63
2022/02/25 07:16:43;;;;;;;7.07;3.43;;;3.00;99.90;;;4.20;82.25;98628.72;5223405;28;20578;-63
2022/02/25 07:19:17;;;;;;;5.83;4.03;;;3.30;99.90;;;4.45;80.50;98627.72;5227627;28;20208;-63
2022/02/25 07:21:50;;;;;;;4.80;3.67;;;3.60;99.90;;;4.81;77.66;98629.34;5228938;28;20201;-63
2022/02/25 07:24:23;;;;;;;5.37;3.00;;;3.70;99.90;;;4.85;76.10;98635.56;5230508;28;20196;-63
2022/02/25 07:26:56;;;;;;;5.13;3.23;;;3.80;99.90;;;4.99;75.69;98640.25;5232338;28;20217;-63
2022/02/25 07:29:29;;;;;;;7.43;3.90;;;3.70;99.90;;;4.82;76.10;98638.72;5229765;28;20923;-63
2022/02/25 07:32:04;;;;;;;4.73;3.37;;;3.80;99.90;;;4.88;76.99;98646.88;5239982;28;20228;-63
2022/02/25 07:34:39;;;;;;;5.73;3.23;;;3.90;99.90;;;5.06;75.72;98644.22;5238094;28;20199;-64
2022/02/25 07:37:12;;;;;;;4.90;3.37;;;3.90;99.90;;;4.89;76.00;98647.75;5236959;28;20199;-63
2022/02/25 07:39:45;;;;;;;3.77;3.23;;;3.90;99.90;;;5.04;76.77;98639.03;5234690;28;20197;-63
2022/02/25 07:42:18;;;;;;;5.03;3.23;;;4.10;99.90;;;4.95;75.89;98654.28;5238257;28;20221;-63
2022/02/25 07:44:51;;;;;;;4.50;4.00;;;4.20;99.90;;;5.26;77.29;98651.97;5236286;28;20203;-63
2022/02/25 07:47:26;;;;;;;4.90;3.33;;;4.40;99.90;;;5.54;75.78;98655.34;5242685;28;20249;-63
2022/02/25 07:49:59;;;;;;;6.90;3.10;;;4.60;99.90;;;5.77;74.95;98659.94;5241902;28;20293;-63
2022/02/25 07:52:34;;;;;;;6.57;3.60;;;4.80;99.90;;;6.10;72.42;98661.16;5242717;28;20605;-63
2022/02/25 07:55:09;;;;;;;5.60;3.70;;;5.00;99.90;;;6.25;72.80;98669.22;5234808;28;20212;-64
2022/02/25 07:57:42;;;;;;;5.23;3.37;;;5.20;99.90;;;6.39;71.86;98670.41;5240497;28;20292;-63
2022/02/25 08:00:29;;;;;;;5.00;3.50;;;5.30;99.90;;;6.63;70.49;98672.50;5231588;28;20251;-64
2022/02/25 08:03:04;;;;;;;5.60;3.60;;;5.40;99.90;;;6.80;70.37;98678.13;5241902;28;20595;-64
2022/02/25 08:05:38;;;;;;;6.50;4.90;;;5.70;99.90;;;7.09;69.20;98675.47;5243656;28;20201;-64
2022/02/25 08:08:11;;;;;;;5.33;4.30;;;5.90;99.90;;;7.20;69.46;98665.44;5238202;28;20584;-63
2022/02/25 08:10:46;;;;;;;4.17;3.43;;;6.10;99.90;;;7.37;69.25;98668.50;5235062;28;20216;-64
2022/02/25 08:13:20;;;;;;;4.07;3.00;;;6.30;99.90;;;7.48;67.78;98666.84;5241170;28;20216;-64
2022/02/25 08:15:53;;;;;;;7.23;3.63;;;6.40;99.90;;;7.47;66.15;98671.03;5236355;28;20201;-64
2022/02/25 08:18:31;;;;;;;5.03;3.77;;;6.50;99.90;;;7.55;67.12;98669.09;5234964;28;20216;-64
2022/02/25 08:21:04;;;;;;;4.77;3.47;;;6.60;99.90;;;7.71;65.84;98671.25;5237966;28;20230;-64
2022/02/25 08:23:38;;;;;;;5.40;3.30;;;6.60;99.90;;;7.66;66.67;98669.22;5234113;28;20279;-63
2022/02/25 08:26:11;;;;;;;6.50;3.47;;;6.70;99.90;;;7.74;65.53;98674.06;5240983;28;20556;-64
2022/02/25 08:28:44;;;;;;;6.13;3.40;;;6.70;99.90;;;7.85;64.98;98668.19;5240574;28;20215;-64
2022/02/25 08:31:17;;;;;;;5.33;3.10;;;6.80;99.90;;;7.87;63.82;98664.09;5238880;28;20656;-63
2022/02/25 08:33:52;;;;;;;4.87;3.60;;;6.80;99.90;;;7.81;63.64;98669.59;5240802;28;20240;-64
2022/02/25 08:36:25;;;;;;;4.70;3.33;;;6.60;99.90;;;7.72;63.82;98673.03;5243462;28;20204;-64
2022/02/25 08:38:58;;;;;;;4.87;3.20;;;6.30;99.90;;;7.57;64.53;98672.69;5241631;28;20197;-63
2022/02/25 08:41:31;;;;;;;6.63;3.80;;;6.10;99.90;;;7.39;64.98;98672.94;5241358;28;20250;-63
2022/02/25 08:44:05;;;;;;;7.73;3.70;;;6.00;99.90;;;7.13;64.78;98662.28;5239933;28;20239;-64
2022/02/25 08:46:39;;;;;;;8.53;4.50;;;5.80;99.90;;;7.07;65.28;98674.47;5240206;28;20219;-63
2022/02/25 08:49:13;;;;;;;7.23;3.40;;;5.70;99.90;;;7.13;65.51;98670.78;5242307;28;20262;-63
2022/02/25 08:51:48;;;;;;;6.77;3.67;;;5.80;99.90;;;7.14;65.09;98670.03;5237451;28;20287;-63
2022/02/25 08:54:21;;;;;;;5.93;3.87;;;6.10;99.90;;;7.23;64.88;98670.78;5243765;28;20205;-62
2022/02/25 08:56:54;;;;;;;7.27;3.83;;;6.30;99.90;;;7.43;64.19;98669.00;5239997;28;20193;-64
2022/02/25 08:59:27;;;;;;;5.43;3.53;;;6.60;99.90;;;7.56;63.66;98664.16;5238871;28;20204;-65
2022/02/25 09:02:00;;;;;;;6.43;3.63;;;6.70;99.90;;;7.67;63.56;98655.75;5242965;28;20257;-64
2022/02/25 09:04:35;;;;;;;4.73;3.57;;;6.80;99.90;;;7.75;63.30;98646.16;5242063;28;20607;-63
2022/02/25 09:07:08;;;;;;;6.07;3.37;;;6.80;99.90;;;7.77;62.16;98654.81;5239554;28;20220;-65
2022/02/25 09:09:41;;;;;;;6.33;2.97;;;6.90;99.90;;;7.78;62.21;98653.16;5242253;28;20193;-64
2022/02/25 09:12:14;;;;;;;5.33;4.00;;;7.00;99.90;;;7.95;62.52;98651.97;5237242;28;20228;-64
2022/02/25 09:14:50;;;;;;;6.23;3.70;;;7.10;99.90;;;8.01;61.29;98647.38;5239637;28;20599;-64
2022/02/25 09:17:25;;;;;;;7.67;3.87;;;7.30;99.90;;;8.00;60.86;98643.06;5239617;28;20530;-63
2022/02/25 09:20:00;;;;;;;6.87;3.50;;;7.30;99.90;;;8.07;60.70;98643.66;5241739;28;20196;-64
2022/02/25 09:22:33;;;;;;;7.97;3.37;;;7.40;99.90;;;8.30;60.03;98644.59;5241715;28;20319;-65
2022/02/25 09:25:07;;;;;;;5.03;3.43;;;7.50;99.90;;;8.32;59.87;98645.59;5231544;28;20197;-64
2022/02/25 09:27:40;;;;;;;5.67;3.63;;;7.60;99.90;;;8.35;60.41;98645.81;5246201;28;20209;-64
2022/02/25 09:30:15;;;;;;;5.50;3.47;;;7.70;99.90;;;8.49;59.15;98640.19;5234099;28;20197;-65
2022/02/25 09:32:49;;;;;;;5.33;3.60;;;7.70;99.90;;;8.56;59.83;98637.34;5235519;28;20230;-63
2022/02/25 09:35:23;;;;;;;8.70;4.27;;;7.90;99.90;;;8.81;59.23;98641.75;5236049;28;20201;-65
2022/02/25 09:37:57;;;;;;;8.23;4.33;;;7.90;99.90;;;8.91;58.43;98640.81;5236515;28;20193;-63
2022/02/25 09:40:30;;;;;;;6.90;4.13;;;8.10;99.90;;;8.96;57.36;98629.31;5237284;28;20201;-64
2022/02/25 09:43:06;;;;;;;7.87;4.10;;;8.30;99.90;;;8.83;56.96;98632.59;5235466;28;20228;-64
2022/02/25 09:45:39;;;;;;;8.23;4.00;;;8.10;99.90;;;9.09;57.89;98638.75;5242726;28;20199;-64
2022/02/25 09:48:12;;;;;;;6.50;3.70;;;8.30;99.90;;;9.24;56.95;98632.25;5240159;28;20691;-63
2022/02/25 09:50:51;;;;;;;4.43;3.57;;;8.40;99.90;;;9.41;55.58;98638.59;5237924;28;20205;-63
2022/02/25 09:53:24;;;;;;;6.90;3.40;;;8.40;99.90;;;9.21;56.66;98629.47;5237846;28;20695;-63
2022/02/25 09:56:00;;;;;;;5.07;3.30;;;8.40;99.70;;;9.38;54.77;98636.72;5237029;28;20200;-64
2022/02/25 09:58:33;;;;;;;6.17;3.10;;;8.60;99.10;;;9.55;52.91;98637.97;5232828;28;20193;-64
2022/02/25 10:01:06;;;;;;;5.93;3.50;;;8.40;98.20;;;9.51;52.11;98642.75;5229878;28;20204;-64
2022/02/25 10:03:40;;;;;;;6.43;3.00;;;8.30;97.40;;;9.45;52.59;98636.41;5228360;28;20717;-63
2022/02/25 10:06:14;;;;;;;7.80;2.97;;;8.10;98.10;;;9.16;51.82;98643.56;5231947;28;20236;-64
2022/02/25 10:08:47;;;;;;;5.57;2.60;;;8.00;97.50;;;9.10;52.05;98650.72;5229841;28;20224;-65
2022/02/25 10:11:20;;;;;;;7.37;2.93;;;8.20;97.10;;;8.88;51.29;98651.66;5227793;28;20208;-64
2022/02/25 10:14:11;;;;;;;4.27;3.10;;;7.90;96.60;;;8.72;51.39;98653.81;5238359;28;20707;-63
2022/02/25 10:17:06;;;;;;;5.93;2.53;;;7.70;96.70;;;8.58;51.40;98645.09;5228708;28;20201;-67
2022/02/25 10:19:41;;;;;;;5.73;2.80;;;7.60;96.60;;;8.37;52.95;98653.59;5232474;28;20197;-64
2022/02/25 10:22:22;;;;;;;5.03;3.10;;;7.30;97.50;;;8.25;52.90;98648.44;5233699;28;20227;-63
2022/02/25 10:24:58;;;;;;;6.83;3.20;;;7.30;97.40;;;8.17;54.01;98636.75;5233654;28;20193;-62
2022/02/25 10:27:35;;;;;;;7.53;2.90;;;7.30;97.80;;;8.48;53.27;98638.41;5231993;28;20221;-67
2022/02/25 10:30:11;;;;;;;5.80;3.03;;;7.60;97.70;;;8.47;51.80;98641.75;5225835;28;20197;-63
2022/02/25 10:32:47;;;;;;;5.23;2.93;;;7.40;96.90;;;8.47;53.09;98646.84;5239212;28;20227;-64
2022/02/25 10:35:27;;;;;;;6.13;2.50;;;7.40;97.70;;;8.51;53.38;98642.84;5229605;28;20652;-67
2022/02/25 10:38:06;;;;;;;6.50;3.10;;;7.70;97.30;;;8.71;53.15;98637.63;5233901;28;20219;-66
2022/02/25 10:40:42;;;;;;;5.57;2.53;;;7.90;97.30;;;8.70;52.91;98629.84;5229707;28;20200;-64
2022/02/25 10:43:27;;;;;;;5.40;2.90;;;7.90;96.90;;;8.71;51.32;98645.28;5235030;28;20239;-63
2022/02/25 10:46:12;;;;;;;5.27;2.87;;;7.70;96.20;;;8.48;49.94;98642.63;5226149;28;20209;-63
2022/02/25 10:48:46;;;;;;;6.53;2.60;;;7.50;95.40;;;8.47;50.83;98639.19;5228810;28;20240;-63
2022/02/25 10:51:23;;;;;;;5.17;3.07;;;7.40;96.10;;;8.45;50.75;98642.38;5231889;28;20640;-63
2022/02/25 10:53:59;;;;;;;4.93;2.50;;;7.30;96.10;;;8.50;51.15;98636.88;5234357;28;20710;-63
2022/02/25 10:56:44;;;;;;;5.97;3.33;;;7.30;96.40;;;8.48;51.45;98638.41;5236826;28;20200;-64
2022/02/25 10:59:18;;;;;;;7.63;3.10;;;7.40;96.30;;;8.37;50.66;98639.19;5240921;28;20204;-63
2022/02/25 11:01:51;;;;;;;6.37;3.23;;;7.40;95.50;;;8.41;48.86;98625.94;5236561;28;20639;-63
2022/02/25 11:04:24;;;;;;;3.30;2.67;;;7.50;94.50;;;8.53;50.00;98636.22;5236058;28;20287;-63
2022/02/25 11:06:57;;;;;;;3.97;3.00;;;7.50;95.30;;;8.36;48.87;98632.34;5234467;28;20224;-63
2022/02/25 11:09:32;;;;;;;6.10;3.20;;;7.40;94.20;;;8.29;48.63;98630.06;5234535;28;20225;-63